createdAt,value
2017-06-13T00:00:23.265Z,1008.7
2017-06-13T00:01:03.840Z,1008.74
2017-06-13T00:01:44.427Z,1008.73
2017-06-13T00:02:25.010Z,1008.63
2017-06-13T00:03:05.610Z,1008.63
2017-06-13T00:03:46.207Z,1008.69
2017-06-13T00:04:26.823Z,1008.72
2017-06-13T00:05:07.397Z,1008.7
2017-06-13T00:05:47.977Z,1008.69
2017-06-13T00:06:28.561Z,1008.73
2017-06-13T00:07:09.164Z,1008.68
2017-06-13T00:07:49.758Z,1008.71
2017-06-13T00:08:30.433Z,1008.69
2017-06-13T00:09:10.991Z,1008.73
2017-06-13T00:09:51.583Z,1008.73
2017-06-13T00:10:32.191Z,1008.77
2017-06-13T00:11:12.802Z,1008.7
2017-06-13T00:11:53.400Z,1008.74
2017-06-13T00:12:33.982Z,1008.73
2017-06-13T00:13:14.579Z,1008.7
2017-06-13T00:13:55.155Z,1008.75
2017-06-13T00:14:35.737Z,1008.75
2017-06-13T00:15:16.326Z,1008.71
2017-06-13T00:15:56.959Z,1008.77
2017-06-13T00:16:37.536Z,1008.73
2017-06-13T00:17:18.161Z,1008.68
2017-06-13T00:17:58.765Z,1008.7
2017-06-13T00:18:39.345Z,1008.73
2017-06-13T00:19:19.922Z,1008.77
2017-06-13T00:20:00.508Z,1008.74
2017-06-13T00:20:41.106Z,1008.71
2017-06-13T00:21:21.706Z,1008.81
2017-06-13T00:22:02.305Z,1008.74
2017-06-13T00:22:42.908Z,1008.74
2017-06-13T00:23:23.503Z,1008.76
2017-06-13T00:24:10.652Z,1008.8
2017-06-13T00:24:51.236Z,1008.69
2017-06-13T00:25:31.833Z,1008.78
2017-06-13T00:26:12.402Z,1008.79
2017-06-13T00:26:52.983Z,1008.81
2017-06-13T00:27:33.580Z,1008.72
2017-06-13T00:28:14.184Z,1008.8
2017-06-13T00:28:54.773Z,1008.76
2017-06-13T00:29:35.391Z,1008.75
2017-06-13T00:30:15.962Z,1008.75
2017-06-13T00:30:56.586Z,1008.73
2017-06-13T00:31:37.189Z,1008.76
2017-06-13T00:32:17.755Z,1008.79
2017-06-13T00:32:58.339Z,1008.8
2017-06-13T00:33:38.929Z,1008.78
2017-06-13T00:34:19.622Z,1008.81
2017-06-13T00:35:00.416Z,1008.77
2017-06-13T00:35:41.017Z,1008.75
2017-06-13T00:36:21.614Z,1008.78
2017-06-13T00:37:02.221Z,1008.79
2017-06-13T00:37:42.812Z,1008.78
2017-06-13T00:38:23.413Z,1008.79
2017-06-13T00:39:04.012Z,1008.76
2017-06-13T00:39:44.629Z,1008.81
2017-06-13T00:40:25.278Z,1008.74
2017-06-13T00:41:05.868Z,1008.78
2017-06-13T00:41:46.451Z,1008.84
2017-06-13T00:42:27.036Z,1008.76
2017-06-13T00:43:07.635Z,1008.81
2017-06-13T00:43:48.267Z,1008.85
2017-06-13T00:44:28.878Z,1008.89
2017-06-13T00:45:09.472Z,1008.82
2017-06-13T00:45:50.098Z,1008.8
2017-06-13T00:46:30.684Z,1008.84
2017-06-13T00:47:11.310Z,1008.78
2017-06-13T00:47:51.909Z,1008.83
2017-06-13T00:48:32.505Z,1008.85
2017-06-13T00:49:13.141Z,1008.86
2017-06-13T00:49:53.793Z,1008.81
2017-06-13T00:50:34.426Z,1008.82
2017-06-13T00:51:15.042Z,1008.86
2017-06-13T00:51:55.640Z,1008.83
2017-06-13T00:52:36.244Z,1008.82
2017-06-13T00:53:16.880Z,1008.83
2017-06-13T00:53:57.477Z,1008.86
2017-06-13T00:54:38.117Z,1008.84
2017-06-13T00:55:18.743Z,1008.91
2017-06-13T00:55:59.346Z,1008.9
2017-06-13T00:56:39.960Z,1008.85
2017-06-13T00:57:20.569Z,1008.83
2017-06-13T00:58:01.177Z,1008.79
2017-06-13T00:58:41.838Z,1008.82
2017-06-13T00:59:22.462Z,1008.85
2017-06-13T01:00:03.069Z,1008.85
2017-06-13T01:00:43.677Z,1008.84
2017-06-13T01:01:24.299Z,1008.89
2017-06-13T01:02:04.892Z,1008.85
2017-06-13T01:02:45.521Z,1008.91
2017-06-13T01:03:26.233Z,1008.92
2017-06-13T01:04:06.829Z,1008.86
2017-06-13T01:04:47.424Z,1008.86
2017-06-13T01:05:28.018Z,1008.88
2017-06-13T01:06:08.610Z,1008.85
2017-06-13T01:06:49.197Z,1008.87
2017-06-13T01:07:29.797Z,1008.84
2017-06-13T01:08:10.417Z,1008.8
2017-06-13T01:08:51.227Z,1008.86
2017-06-13T01:09:31.831Z,1008.83
2017-06-13T01:10:12.463Z,1008.84
2017-06-13T01:10:53.078Z,1008.81
2017-06-13T01:11:33.690Z,1008.78
2017-06-13T01:12:14.278Z,1008.87
2017-06-13T01:12:54.862Z,1008.79
2017-06-13T01:13:35.485Z,1008.82
2017-06-13T01:14:16.144Z,1008.84
2017-06-13T01:14:56.727Z,1008.83
2017-06-13T01:15:37.304Z,1008.85
2017-06-13T01:16:17.908Z,1008.84
2017-06-13T01:16:58.507Z,1008.84
2017-06-13T01:17:39.126Z,1008.84
2017-06-13T01:18:19.732Z,1008.82
2017-06-13T01:19:00.406Z,1008.82
2017-06-13T01:19:41.026Z,1008.84
2017-06-13T01:20:21.625Z,1008.86
2017-06-13T01:21:02.228Z,1008.78
2017-06-13T01:21:42.878Z,1008.84
2017-06-13T01:22:23.509Z,1008.79
2017-06-13T01:23:04.108Z,1008.84
2017-06-13T01:23:44.727Z,1008.82
2017-06-13T01:24:25.327Z,1008.84
2017-06-13T01:25:05.906Z,1008.83
2017-06-13T01:25:46.523Z,1008.86
2017-06-13T01:26:27.160Z,1008.84
2017-06-13T01:27:07.789Z,1008.83
2017-06-13T01:27:48.441Z,1008.84
2017-06-13T01:28:29.073Z,1008.86
2017-06-13T01:29:09.815Z,1008.89
2017-06-13T01:29:50.441Z,1008.83
2017-06-13T01:30:31.060Z,1008.79
2017-06-13T01:31:11.761Z,1008.8
2017-06-13T01:31:52.415Z,1008.85
2017-06-13T01:32:32.994Z,1008.74
2017-06-13T01:33:13.638Z,1008.82
2017-06-13T01:33:54.243Z,1008.83
2017-06-13T01:34:34.845Z,1008.8
2017-06-13T01:35:15.466Z,1008.82
2017-06-13T01:35:56.070Z,1008.76
2017-06-13T01:36:36.696Z,1008.79
2017-06-13T01:37:17.289Z,1008.83
2017-06-13T01:37:57.923Z,1008.81
2017-06-13T01:38:38.542Z,1008.78
2017-06-13T01:39:19.132Z,1008.84
2017-06-13T01:39:59.735Z,1008.77
2017-06-13T01:40:40.321Z,1008.8
2017-06-13T01:41:20.914Z,1008.78
2017-06-13T01:42:01.530Z,1008.76
2017-06-13T01:42:42.132Z,1008.72
2017-06-13T01:43:22.773Z,1008.77
2017-06-13T01:44:03.369Z,1008.78
2017-06-13T01:44:43.959Z,1008.8
2017-06-13T01:45:24.572Z,1008.77
2017-06-13T01:46:05.160Z,1008.78
2017-06-13T01:46:45.762Z,1008.74
2017-06-13T01:47:26.349Z,1008.79
2017-06-13T01:48:06.922Z,1008.73
2017-06-13T01:48:47.537Z,1008.73
2017-06-13T01:49:28.133Z,1008.72
2017-06-13T01:50:08.742Z,1008.77
2017-06-13T01:50:49.335Z,1008.79
2017-06-13T01:51:29.938Z,1008.71
2017-06-13T01:52:10.517Z,1008.74
2017-06-13T01:52:51.094Z,1008.71
2017-06-13T01:53:31.679Z,1008.69
2017-06-13T01:54:12.283Z,1008.7
2017-06-13T01:54:52.869Z,1008.69
2017-06-13T01:55:33.481Z,1008.7
2017-06-13T01:56:14.062Z,1008.73
2017-06-13T01:56:54.650Z,1008.69
2017-06-13T01:57:35.246Z,1008.7
2017-06-13T01:58:15.873Z,1008.69
2017-06-13T01:58:56.447Z,1008.68
2017-06-13T01:59:37.073Z,1008.72
2017-06-13T02:00:17.716Z,1008.68
2017-06-13T02:00:58.419Z,1008.67
2017-06-13T02:01:39.017Z,1008.69
2017-06-13T02:02:19.628Z,1008.69
2017-06-13T02:03:00.201Z,1008.65
2017-06-13T02:03:40.895Z,1008.67
2017-06-13T02:04:21.469Z,1008.67
2017-06-13T02:05:02.051Z,1008.68
2017-06-13T02:05:42.633Z,1008.63
2017-06-13T02:06:23.211Z,1008.63
2017-06-13T02:07:03.790Z,1008.63
2017-06-13T02:07:44.429Z,1008.68
2017-06-13T02:08:25.017Z,1008.65
2017-06-13T02:09:05.596Z,1008.63
2017-06-13T02:09:46.182Z,1008.62
2017-06-13T02:10:26.776Z,1008.63
2017-06-13T02:11:07.371Z,1008.65
2017-06-13T02:11:47.962Z,1008.68
2017-06-13T02:12:28.569Z,1008.67
2017-06-13T02:13:09.129Z,1008.62
2017-06-13T02:13:49.731Z,1008.63
2017-06-13T02:14:30.314Z,1008.67
2017-06-13T02:15:10.897Z,1008.66
2017-06-13T02:15:51.493Z,1008.65
2017-06-13T02:16:32.081Z,1008.64
2017-06-13T02:17:12.662Z,1008.61
2017-06-13T02:17:53.242Z,1008.66
2017-06-13T02:18:33.841Z,1008.65
2017-06-13T02:19:14.433Z,1008.63
2017-06-13T02:19:55.008Z,1008.68
2017-06-13T02:20:35.604Z,1008.67
2017-06-13T02:21:16.198Z,1008.68
2017-06-13T02:21:56.805Z,1008.71
2017-06-13T02:22:37.388Z,1008.65
2017-06-13T02:23:17.954Z,1008.7
2017-06-13T02:23:58.536Z,1008.7
2017-06-13T02:24:39.131Z,1008.65
2017-06-13T02:25:19.730Z,1008.66
2017-06-13T02:26:00.309Z,1008.69
2017-06-13T02:26:40.892Z,1008.72
2017-06-13T02:27:21.495Z,1008.72
2017-06-13T02:28:02.092Z,1008.73
2017-06-13T02:28:42.699Z,1008.71
2017-06-13T02:29:23.297Z,1008.7
2017-06-13T02:30:03.897Z,1008.66
2017-06-13T02:30:44.495Z,1008.71
2017-06-13T02:31:25.116Z,1008.68
2017-06-13T02:32:05.684Z,1008.67
2017-06-13T02:32:46.269Z,1008.7
2017-06-13T02:33:26.876Z,1008.68
2017-06-13T02:34:07.513Z,1008.68
2017-06-13T02:34:48.094Z,1008.69
2017-06-13T02:35:28.694Z,1008.64
2017-06-13T02:36:09.280Z,1008.76
2017-06-13T02:36:49.861Z,1008.71
2017-06-13T02:37:30.457Z,1008.72
2017-06-13T02:38:11.049Z,1008.69
2017-06-13T02:38:51.635Z,1008.69
2017-06-13T02:39:32.267Z,1008.69
2017-06-13T02:40:12.832Z,1008.71
2017-06-13T02:40:53.410Z,1008.71
2017-06-13T02:41:33.985Z,1008.73
2017-06-13T02:42:14.571Z,1008.74
2017-06-13T02:42:55.154Z,1008.69
2017-06-13T02:43:35.735Z,1008.72
2017-06-13T02:44:16.323Z,1008.67
2017-06-13T02:44:56.912Z,1008.69
2017-06-13T02:45:37.487Z,1008.69
2017-06-13T02:46:18.089Z,1008.66
2017-06-13T02:46:58.700Z,1008.7
2017-06-13T02:47:39.393Z,1008.67
2017-06-13T02:48:20.005Z,1008.67
2017-06-13T02:49:00.591Z,1008.68
2017-06-13T02:49:41.168Z,1008.62
2017-06-13T02:50:21.764Z,1008.6
2017-06-13T02:51:02.362Z,1008.65
2017-06-13T02:51:42.954Z,1008.69
2017-06-13T02:52:23.561Z,1008.7
2017-06-13T02:53:04.137Z,1008.69
2017-06-13T02:53:44.715Z,1008.63
2017-06-13T02:54:25.322Z,1008.68
2017-06-13T02:55:05.894Z,1008.67
2017-06-13T02:55:46.498Z,1008.66
2017-06-13T02:56:27.089Z,1008.68
2017-06-13T02:57:07.689Z,1008.65
2017-06-13T02:57:48.268Z,1008.58
2017-06-13T02:58:28.876Z,1008.63
2017-06-13T02:59:09.471Z,1008.64
2017-06-13T02:59:50.083Z,1008.65
2017-06-13T03:00:30.741Z,1008.71
2017-06-13T03:01:11.358Z,1008.66
2017-06-13T03:01:51.959Z,1008.65
2017-06-13T03:02:32.555Z,1008.63
2017-06-13T03:03:13.146Z,1008.68
2017-06-13T03:03:53.738Z,1008.67
2017-06-13T03:04:34.331Z,1008.67
2017-06-13T03:05:14.931Z,1008.64
2017-06-13T03:05:55.522Z,1008.67
2017-06-13T03:06:36.108Z,1008.7
2017-06-13T03:07:16.695Z,1008.69
2017-06-13T03:07:57.278Z,1008.67
2017-06-13T03:08:37.870Z,1008.67
2017-06-13T03:09:18.452Z,1008.66
2017-06-13T03:09:59.051Z,1008.69
2017-06-13T03:10:39.657Z,1008.72
2017-06-13T03:11:20.277Z,1008.72
2017-06-13T03:12:00.864Z,1008.73
2017-06-13T03:12:41.462Z,1008.69
2017-06-13T03:13:22.058Z,1008.71
2017-06-13T03:14:02.651Z,1008.75
2017-06-13T03:14:43.237Z,1008.76
2017-06-13T03:15:23.896Z,1008.75
2017-06-13T03:16:04.472Z,1008.75
2017-06-13T03:16:45.060Z,1008.75
2017-06-13T03:17:25.652Z,1008.75
2017-06-13T03:18:06.241Z,1008.8
2017-06-13T03:18:46.848Z,1008.72
2017-06-13T03:19:27.438Z,1008.76
2017-06-13T03:20:08.027Z,1008.74
2017-06-13T03:20:48.650Z,1008.79
2017-06-13T03:21:29.227Z,1008.78
2017-06-13T03:22:09.813Z,1008.78
2017-06-13T03:22:50.418Z,1008.79
2017-06-13T03:23:31.045Z,1008.74
2017-06-13T03:24:11.638Z,1008.76
2017-06-13T03:24:52.247Z,1008.73
2017-06-13T03:25:32.901Z,1008.77
2017-06-13T03:26:13.517Z,1008.73
2017-06-13T03:26:54.112Z,1008.75
2017-06-13T03:27:34.706Z,1008.74
2017-06-13T03:28:15.285Z,1008.76
2017-06-13T03:28:55.879Z,1008.76
2017-06-13T03:29:36.462Z,1008.76
2017-06-13T03:30:17.059Z,1008.8
2017-06-13T03:30:57.674Z,1008.7
2017-06-13T03:31:38.238Z,1008.72
2017-06-13T03:32:18.859Z,1008.76
2017-06-13T03:32:59.445Z,1008.74
2017-06-13T03:33:40.029Z,1008.76
2017-06-13T03:34:20.610Z,1008.73
2017-06-13T03:35:01.208Z,1008.76
2017-06-13T03:35:41.796Z,1008.71
2017-06-13T03:36:22.399Z,1008.72
2017-06-13T03:37:02.990Z,1008.71
2017-06-13T03:37:43.569Z,1008.77
2017-06-13T03:38:24.158Z,1008.72
2017-06-13T03:39:04.739Z,1008.74
2017-06-13T03:39:45.342Z,1008.74
2017-06-13T03:40:25.925Z,1008.77
2017-06-13T03:41:06.527Z,1008.82
2017-06-13T03:41:47.185Z,1008.76
2017-06-13T03:42:27.771Z,1008.85
2017-06-13T03:43:08.348Z,1008.73
2017-06-13T03:43:48.938Z,1008.77
2017-06-13T03:44:29.533Z,1008.77
2017-06-13T03:45:10.162Z,1008.79
2017-06-13T03:45:50.744Z,1008.83
2017-06-13T03:46:31.339Z,1008.8
2017-06-13T03:47:11.918Z,1008.78
2017-06-13T03:47:52.500Z,1008.81
2017-06-13T03:48:33.083Z,1008.84
2017-06-13T03:49:13.670Z,1008.82
2017-06-13T03:49:54.255Z,1008.88
2017-06-13T03:50:34.856Z,1008.87
2017-06-13T03:51:15.462Z,1008.84
2017-06-13T03:51:56.049Z,1008.86
2017-06-13T03:52:36.624Z,1008.84
2017-06-13T03:53:17.250Z,1008.81
2017-06-13T03:53:57.793Z,1008.83
2017-06-13T03:54:38.364Z,1008.82
2017-06-13T03:55:18.952Z,1008.81
2017-06-13T03:55:59.535Z,1008.79
2017-06-13T03:56:40.130Z,1008.83
2017-06-13T03:57:20.708Z,1008.85
2017-06-13T03:58:01.326Z,1008.84
2017-06-13T03:58:41.909Z,1008.84
2017-06-13T03:59:22.519Z,1008.82
2017-06-13T04:00:03.163Z,1008.8
2017-06-13T04:00:43.757Z,1008.81
2017-06-13T04:01:24.347Z,1008.84
2017-06-13T04:02:04.925Z,1008.87
2017-06-13T04:02:45.507Z,1008.86
2017-06-13T04:03:26.123Z,1008.89
2017-06-13T04:04:06.703Z,1008.83
2017-06-13T04:04:47.282Z,1008.92
2017-06-13T04:05:27.861Z,1008.82
2017-06-13T04:06:08.460Z,1008.84
2017-06-13T04:06:49.063Z,1008.89
2017-06-13T04:07:29.664Z,1008.85
2017-06-13T04:08:10.265Z,1008.87
2017-06-13T04:08:50.851Z,1008.89
2017-06-13T04:09:31.437Z,1008.88
2017-06-13T04:10:12.026Z,1008.9
2017-06-13T04:10:52.614Z,1008.9
2017-06-13T04:11:33.192Z,1008.85
2017-06-13T04:12:13.777Z,1008.9
2017-06-13T04:12:54.364Z,1008.91
2017-06-13T04:13:34.964Z,1008.94
2017-06-13T04:14:15.683Z,1008.92
2017-06-13T04:14:56.275Z,1008.94
2017-06-13T04:15:36.951Z,1008.94
2017-06-13T04:16:17.536Z,1008.97
2017-06-13T04:16:58.138Z,1008.92
2017-06-13T04:17:38.911Z,1008.92
2017-06-13T04:18:19.587Z,1008.97
2017-06-13T04:19:00.637Z,1008.92
2017-06-13T04:19:41.266Z,1008.92
2017-06-13T04:20:21.842Z,1008.95
2017-06-13T04:21:02.426Z,1008.97
2017-06-13T04:21:43.030Z,1008.95
2017-06-13T04:22:23.739Z,1008.96
2017-06-13T04:23:04.324Z,1008.95
2017-06-13T04:23:44.913Z,1008.95
2017-06-13T04:24:25.532Z,1008.92
2017-06-13T04:25:06.097Z,1008.97
2017-06-13T04:25:46.672Z,1009.05
2017-06-13T04:26:27.281Z,1008.94
2017-06-13T04:27:07.882Z,1008.96
2017-06-13T04:27:48.529Z,1008.98
2017-06-13T04:28:29.104Z,1008.95
2017-06-13T04:29:09.680Z,1009.02
2017-06-13T04:29:50.261Z,1009.04
2017-06-13T04:30:30.918Z,1009.05
2017-06-13T04:31:11.507Z,1009.02
2017-06-13T04:31:52.107Z,1008.99
2017-06-13T04:32:32.702Z,1008.99
2017-06-13T04:33:13.278Z,1009.07
2017-06-13T04:33:53.869Z,1008.94
2017-06-13T04:34:34.458Z,1009.06
2017-06-13T04:35:15.037Z,1008.93
2017-06-13T04:35:55.628Z,1008.98
2017-06-13T04:36:36.215Z,1009
2017-06-13T04:37:16.812Z,1009.06
2017-06-13T04:37:57.386Z,1009.01
2017-06-13T04:38:37.971Z,1009.03
2017-06-13T04:39:18.555Z,1009.05
2017-06-13T04:39:59.139Z,1009.01
2017-06-13T04:40:39.733Z,1009.04
2017-06-13T04:41:20.360Z,1009.03
2017-06-13T04:42:00.978Z,1009.04
2017-06-13T04:42:41.570Z,1009.01
2017-06-13T04:43:22.184Z,1009.06
2017-06-13T04:44:02.763Z,1009.07
2017-06-13T04:44:43.340Z,1009.06
2017-06-13T04:45:23.916Z,1009.07
2017-06-13T04:46:04.501Z,1009.16
2017-06-13T04:46:45.113Z,1009.13
2017-06-13T04:47:25.709Z,1009.09
2017-06-13T04:48:06.312Z,1009.04
2017-06-13T04:48:46.906Z,1009.07
2017-06-13T04:49:27.499Z,1009.09
2017-06-13T04:50:08.086Z,1009.09
2017-06-13T04:50:48.687Z,1009.07
2017-06-13T04:51:29.322Z,1009.09
2017-06-13T04:52:09.907Z,1009.14
2017-06-13T04:52:50.494Z,1009.09
2017-06-13T04:53:31.073Z,1009.07
2017-06-13T04:54:11.655Z,1009.11
2017-06-13T04:54:52.258Z,1009.11
2017-06-13T04:55:32.844Z,1009.11
2017-06-13T04:56:13.489Z,1009.05
2017-06-13T04:56:54.059Z,1009.06
2017-06-13T04:57:34.672Z,1009.05
2017-06-13T04:58:15.333Z,1009.06
2017-06-13T04:58:55.928Z,1009.08
2017-06-13T04:59:36.593Z,1009.11
2017-06-13T05:00:17.199Z,1009.1
2017-06-13T05:00:57.817Z,1009.13
2017-06-13T05:01:38.405Z,1009.19
2017-06-13T05:02:19.034Z,1009.23
2017-06-13T05:02:59.620Z,1009.19
2017-06-13T05:03:40.206Z,1009.21
2017-06-13T05:04:20.809Z,1009.21
2017-06-13T05:05:01.395Z,1009.21
2017-06-13T05:05:41.988Z,1009.26
2017-06-13T05:06:22.575Z,1009.23
2017-06-13T05:07:03.179Z,1009.23
2017-06-13T05:07:43.780Z,1009.25
2017-06-13T05:08:24.365Z,1009.19
2017-06-13T05:09:04.977Z,1009.22
2017-06-13T05:09:45.576Z,1009.27
2017-06-13T05:10:26.181Z,1009.22
2017-06-13T05:11:06.767Z,1009.21
2017-06-13T05:11:47.360Z,1009.23
2017-06-13T05:12:27.936Z,1009.33
2017-06-13T05:13:08.535Z,1009.31
2017-06-13T05:13:49.138Z,1009.31
2017-06-13T05:14:29.710Z,1009.33
2017-06-13T05:15:10.321Z,1009.38
2017-06-13T05:15:50.922Z,1009.35
2017-06-13T05:16:31.514Z,1009.34
2017-06-13T05:17:12.096Z,1009.35
2017-06-13T05:17:52.708Z,1009.39
2017-06-13T05:18:33.288Z,1009.38
2017-06-13T05:19:13.913Z,1009.36
2017-06-13T05:19:54.529Z,1009.36
2017-06-13T05:20:35.128Z,1009.42
2017-06-13T05:21:15.846Z,1009.42
2017-06-13T05:21:56.443Z,1009.41
2017-06-13T05:22:37.016Z,1009.35
2017-06-13T05:23:17.605Z,1009.38
2017-06-13T05:23:58.223Z,1009.39
2017-06-13T05:24:38.817Z,1009.38
2017-06-13T05:25:19.486Z,1009.4
2017-06-13T05:26:00.072Z,1009.4
2017-06-13T05:26:40.666Z,1009.35
2017-06-13T05:27:21.253Z,1009.33
2017-06-13T05:28:01.843Z,1009.39
2017-06-13T05:28:42.431Z,1009.33
2017-06-13T05:29:23.024Z,1009.36
2017-06-13T05:30:03.675Z,1009.37
2017-06-13T05:30:44.277Z,1009.43
2017-06-13T05:31:24.954Z,1009.4
2017-06-13T05:32:05.577Z,1009.48
2017-06-13T05:32:46.208Z,1009.44
2017-06-13T05:33:26.798Z,1009.46
2017-06-13T05:34:07.462Z,1009.46
2017-06-13T05:34:48.042Z,1009.55
2017-06-13T05:35:28.645Z,1009.59
2017-06-13T05:36:09.261Z,1009.71
2017-06-13T05:36:49.896Z,1009.54
2017-06-13T05:37:30.467Z,1009.53
2017-06-13T05:38:11.042Z,1009.49
2017-06-13T05:38:51.633Z,1009.51
2017-06-13T05:39:32.218Z,1009.42
2017-06-13T05:40:12.812Z,1009.45
2017-06-13T05:40:53.428Z,1009.41
2017-06-13T05:41:34.016Z,1009.4
2017-06-13T05:42:14.670Z,1009.38
2017-06-13T05:42:55.291Z,1009.43
2017-06-13T05:43:35.929Z,1009.43
2017-06-13T05:44:16.547Z,1009.38
2017-06-13T05:44:57.164Z,1009.42
2017-06-13T05:45:37.722Z,1009.44
2017-06-13T05:46:18.328Z,1009.38
2017-06-13T05:46:59.090Z,1009.39
2017-06-13T05:47:39.726Z,1009.59
2017-06-13T05:48:20.346Z,1009.56
2017-06-13T05:49:00.975Z,1009.59
2017-06-13T05:49:43.032Z,1009.56
2017-06-13T05:50:28.837Z,1009.52
2017-06-13T05:51:09.866Z,1009.52
2017-06-13T05:51:59.332Z,1009.57
2017-06-13T05:52:41.324Z,1009.58
2017-06-13T05:53:21.958Z,1009.47
2017-06-13T05:54:03.339Z,1009.5
2017-06-13T05:54:50.544Z,1009.38
2017-06-13T05:55:41.421Z,1009.32
2017-06-13T05:56:24.882Z,1009.28
2017-06-13T05:57:10.032Z,1009.29
2017-06-13T05:57:50.795Z,1009.29
2017-06-13T05:58:31.409Z,1009.36
2017-06-13T05:59:12.068Z,1009.53
2017-06-13T05:59:52.805Z,1009.59
2017-06-13T06:00:33.404Z,1009.4
2017-06-13T06:01:16.579Z,1009.81
2017-06-13T06:01:57.446Z,1009.34
2017-06-13T06:02:38.053Z,1009.39
2017-06-13T06:03:20.086Z,1009.31
2017-06-13T06:04:01.511Z,1009.3
2017-06-13T06:04:42.123Z,1009.31
2017-06-13T06:05:22.741Z,1009.31
2017-06-13T06:06:03.369Z,1009.3
2017-06-13T06:06:43.948Z,1009.3
2017-06-13T06:07:24.552Z,1009.31
2017-06-13T06:08:05.143Z,1009.3
2017-06-13T06:08:45.733Z,1009.32
2017-06-13T06:09:26.327Z,1009.26
2017-06-13T06:10:06.914Z,1009.36
2017-06-13T06:10:47.537Z,1009.4
2017-06-13T06:11:28.167Z,1009.46
2017-06-13T06:12:08.762Z,1009.85
2017-06-13T06:12:49.352Z,1009.43
2017-06-13T06:13:29.971Z,1009.39
2017-06-13T06:14:10.554Z,1009.38
2017-06-13T06:14:51.145Z,1009.48
2017-06-13T06:15:31.825Z,1009.61
2017-06-13T06:16:12.407Z,1009.47
2017-06-13T06:16:55.704Z,1009.4
2017-06-13T06:17:42.625Z,1009.45
2017-06-13T06:18:23.289Z,1009.42
2017-06-13T06:19:03.883Z,1009.6
2017-06-13T06:19:44.503Z,1009.57
2017-06-13T06:20:25.080Z,1010.15
2017-06-13T06:21:05.695Z,1009.39
2017-06-13T06:21:46.477Z,1009.35
2017-06-13T06:22:28.705Z,1009.58
2017-06-13T06:23:09.298Z,1009.44
2017-06-13T06:23:49.908Z,1009.38
2017-06-13T06:24:30.512Z,1009.4
2017-06-13T06:25:11.148Z,1009.43
2017-06-13T06:25:52.443Z,1009.44
2017-06-13T06:26:33.163Z,1009.43
2017-06-13T06:27:13.778Z,1009.42
2017-06-13T06:27:56.476Z,1009.39
2017-06-13T06:28:40.210Z,1009.42
2017-06-13T06:29:25.060Z,1009.35
2017-06-13T06:30:05.683Z,1009.42
2017-06-13T06:30:46.360Z,1009.4
2017-06-13T06:31:26.951Z,1009.39
2017-06-13T06:32:07.538Z,1009.41
2017-06-13T06:32:48.150Z,1009.41
2017-06-13T06:33:28.750Z,1009.31
2017-06-13T06:34:09.358Z,1009.38
2017-06-13T06:34:50.165Z,1009.35
2017-06-13T06:35:30.808Z,1009.34
2017-06-13T06:36:11.391Z,1009.32
2017-06-13T06:36:51.976Z,1009.38
2017-06-13T06:37:34.407Z,1009.26
2017-06-13T06:38:16.221Z,1009.36
2017-06-13T06:38:56.805Z,1009.39
2017-06-13T06:39:37.407Z,1009.4
2017-06-13T06:40:17.988Z,1009.46
2017-06-13T06:40:59.180Z,1009.49
2017-06-13T06:41:40.108Z,1009.53
2017-06-13T06:42:20.701Z,1009.48
2017-06-13T06:43:01.296Z,1009.41
2017-06-13T06:43:41.895Z,1009.45
2017-06-13T06:44:22.607Z,1009.34
2017-06-13T06:45:03.231Z,1009.42
2017-06-13T06:45:43.844Z,1009.45
2017-06-13T06:46:24.440Z,1009.38
2017-06-13T06:47:05.078Z,1009.41
2017-06-13T06:47:45.675Z,1009.37
2017-06-13T06:48:26.277Z,1009.39
2017-06-13T06:49:06.876Z,1009.37
2017-06-13T06:49:47.504Z,1009.37
2017-06-13T06:50:28.108Z,1009.43
2017-06-13T06:51:08.719Z,1009.36
2017-06-13T06:51:49.320Z,1009.36
2017-06-13T06:52:29.913Z,1009.37
2017-06-13T06:53:10.535Z,1009.39
2017-06-13T06:53:51.184Z,1009.37
2017-06-13T06:54:31.772Z,1009.44
2017-06-13T06:55:12.565Z,1009.37
2017-06-13T06:55:53.098Z,1009.34
2017-06-13T06:56:33.729Z,1009.36
2017-06-13T06:57:14.332Z,1009.38
2017-06-13T06:57:54.919Z,1009.4
2017-06-13T06:58:35.664Z,1009.43
2017-06-13T06:59:16.247Z,1009.43
2017-06-13T06:59:56.861Z,1009.41
2017-06-13T07:00:37.456Z,1009.36
2017-06-13T07:01:18.089Z,1009.47
2017-06-13T07:01:58.704Z,1009.41
2017-06-13T07:02:39.359Z,1009.46
2017-06-13T07:03:19.953Z,1009.43
2017-06-13T07:04:00.552Z,1009.38
2017-06-13T07:04:41.165Z,1009.38
2017-06-13T07:05:21.748Z,1009.36
2017-06-13T07:06:02.334Z,1009.35
2017-06-13T07:06:42.928Z,1009.33
2017-06-13T07:07:23.594Z,1009.36
2017-06-13T07:08:04.177Z,1009.33
2017-06-13T07:08:44.765Z,1009.36
2017-06-13T07:09:25.399Z,1009.59
2017-06-13T07:10:06.000Z,1009.47
2017-06-13T07:10:49.267Z,1009.35
2017-06-13T07:11:29.833Z,1009.45
2017-06-13T07:12:10.411Z,1009.46
2017-06-13T07:12:51.037Z,1009.41
2017-06-13T07:13:31.611Z,1009.37
2017-06-13T07:14:12.402Z,1009.43
2017-06-13T07:14:53.039Z,1009.59
2017-06-13T07:15:33.649Z,1009.55
2017-06-13T07:16:14.273Z,1009.69
2017-06-13T07:16:54.869Z,1009.54
2017-06-13T07:17:35.469Z,1009.48
2017-06-13T07:18:16.040Z,1009.55
2017-06-13T07:18:56.617Z,1009.68
2017-06-13T07:19:37.223Z,1009.71
2017-06-13T07:20:17.848Z,1009.74
2017-06-13T07:20:58.514Z,1009.78
2017-06-13T07:21:39.112Z,1009.98
2017-06-13T07:22:19.712Z,1010.35
2017-06-13T07:23:00.325Z,1010.59
2017-06-13T07:23:40.913Z,1011.02
2017-06-13T07:24:21.766Z,1011.2
2017-06-13T07:25:05.941Z,1011.15
2017-06-13T07:25:49.345Z,1011.35
2017-06-13T07:26:29.949Z,1011.75
2017-06-13T07:27:13.767Z,1011.37
2017-06-13T07:27:54.402Z,1009.52
2017-06-13T07:28:35.090Z,1009.53
2017-06-13T07:29:30.582Z,1009.5
2017-06-13T07:30:13.769Z,1009.49
2017-06-13T07:30:54.381Z,1009.56
2017-06-13T07:31:35.017Z,1009.66
2017-06-13T07:32:15.621Z,1009.51
2017-06-13T07:32:56.270Z,1009.53
2017-06-13T07:33:36.876Z,1009.53
2017-06-13T07:34:17.472Z,1009.47
2017-06-13T07:34:58.060Z,1009.53
2017-06-13T07:35:38.670Z,1009.5
2017-06-13T07:36:19.258Z,1009.62
2017-06-13T07:36:59.888Z,1009.54
2017-06-13T07:37:40.473Z,1009.62
2017-06-13T07:38:21.068Z,1009.81
2017-06-13T07:39:01.648Z,1009.65
2017-06-13T07:39:42.247Z,1009.52
2017-06-13T07:40:22.847Z,1009.48
2017-06-13T07:41:03.427Z,1009.52
2017-06-13T07:41:44.072Z,1009.44
2017-06-13T07:42:24.720Z,1009.45
2017-06-13T07:43:05.325Z,1009.51
2017-06-13T07:43:45.908Z,1009.5
2017-06-13T07:44:26.499Z,1009.45
2017-06-13T07:45:07.142Z,1009.51
2017-06-13T07:45:47.769Z,1009.36
2017-06-13T07:46:28.363Z,1009.5
2017-06-13T07:47:08.955Z,1009.46
2017-06-13T07:47:49.558Z,1009.49
2017-06-13T07:48:30.184Z,1009.44
2017-06-13T07:49:10.775Z,1009.53
2017-06-13T07:49:51.382Z,1009.53
2017-06-13T07:50:31.963Z,1009.5
2017-06-13T07:51:12.554Z,1009.56
2017-06-13T07:51:53.136Z,1009.59
2017-06-13T07:52:33.723Z,1009.53
2017-06-13T07:53:14.390Z,1009.54
2017-06-13T07:53:54.979Z,1009.55
2017-06-13T07:54:35.570Z,1009.54
2017-06-13T07:55:16.157Z,1009.58
2017-06-13T07:55:56.748Z,1009.51
2017-06-13T07:56:37.332Z,1009.58
2017-06-13T07:57:17.916Z,1009.62
2017-06-13T07:57:58.513Z,1009.72
2017-06-13T07:58:39.096Z,1009.74
2017-06-13T07:59:19.673Z,1009.73
2017-06-13T08:00:00.269Z,1009.75
2017-06-13T08:00:40.850Z,1009.72
2017-06-13T08:01:21.437Z,1009.75
2017-06-13T08:02:02.024Z,1009.73
2017-06-13T08:02:42.636Z,1009.75
2017-06-13T08:03:23.195Z,1009.68
2017-06-13T08:04:03.916Z,1009.64
2017-06-13T08:04:44.626Z,1009.61
2017-06-13T08:05:25.209Z,1009.66
2017-06-13T08:06:05.831Z,1009.62
2017-06-13T08:06:46.422Z,1009.62
2017-06-13T08:07:27.002Z,1009.58
2017-06-13T08:08:07.594Z,1009.58
2017-06-13T08:08:48.241Z,1009.6
2017-06-13T08:09:28.809Z,1009.64
2017-06-13T08:10:09.406Z,1009.58
2017-06-13T08:10:49.989Z,1009.59
2017-06-13T08:11:30.671Z,1009.65
2017-06-13T08:12:11.200Z,1009.76
2017-06-13T08:12:51.771Z,1009.72
2017-06-13T08:13:32.363Z,1009.76
2017-06-13T08:14:12.990Z,1009.77